sensor_id;sensor_type;location;lat;lon;timestamp;P1;durP1;ratioP1;P2;durP2;ratioP2
49450;SDS011;35336;48.400;10.886;2023-05-14T00:00:14;8.88;;;6.43;;
49450;SDS011;35336;48.400;10.886;2023-05-14T00:00:30;8.93;;;6.68;;
49450;SDS011;35336;48.400;10.886;2023-05-14T00:00:45;7.70;;;6.90;;
49450;SDS011;35336;48.400;10.886;2023-05-14T00:01:01;8.02;;;7.18;;
49450;SDS011;35336;48.400;10.886;2023-05-14T00:01:16;7.73;;;6.70;;
49450;SDS011;35336;48.400;10.886;2023-05-14T00:01:32;7.47;;;6.57;;
49450;SDS011;35336;48.400;10.886;2023-05-14T00:01:47;8.27;;;6.72;;
49450;SDS011;35336;48.400;10.886;2023-05-14T00:02:02;8.57;;;6.70;;
49450;SDS011;35336;48.400;10.886;2023-05-14T00:02:18;7.43;;;6.63;;
49450;SDS011;35336;48.400;10.886;2023-05-14T00:02:33;8.07;;;6.67;;
49450;SDS011;35336;48.400;10.886;2023-05-14T00:02:48;8.30;;;6.50;;
49450;SDS011;35336;48.400;10.886;2023-05-14T00:03:04;7.67;;;6.23;;
49450;SDS011;35336;48.400;10.886;2023-05-14T00:03:19;7.60;;;6.07;;
49450;SDS011;35336;48.400;10.886;2023-05-14T00:03:34;6.37;;;5.77;;
49450;SDS011;35336;48.400;10.886;2023-05-14T00:03:49;6.50;;;5.73;;
49450;SDS011;35336;48.400;10.886;2023-05-14T00:04:05;7.68;;;6.15;;
49450;SDS011;35336;48.400;10.886;2023-05-14T00:04:21;9.23;;;6.03;;
49450;SDS011;35336;48.400;10.886;2023-05-14T00:04:36;9.85;;;6.45;;
49450;SDS011;35336;48.400;10.886;2023-05-14T00:04:52;7.60;;;6.68;;
49450;SDS011;35336;48.400;10.886;2023-05-14T00:05:07;7.00;;;6.30;;
49450;SDS011;35336;48.400;10.886;2023-05-14T00:05:23;6.85;;;6.13;;
49450;SDS011;35336;48.400;10.886;2023-05-14T00:05:38;9.57;;;6.23;;
49450;SDS011;35336;48.400;10.886;2023-05-14T00:05:54;9.95;;;6.25;;
49450;SDS011;35336;48.400;10.886;2023-05-14T00:06:09;7.50;;;5.80;;
49450;SDS011;35336;48.400;10.886;2023-05-14T00:06:24;9.50;;;6.40;;
49450;SDS011;35336;48.400;10.886;2023-05-14T00:06:40;9.07;;;6.55;;
49450;SDS011;35336;48.400;10.886;2023-05-14T00:06:55;6.97;;;6.27;;
49450;SDS011;35336;48.400;10.886;2023-05-14T00:07:11;7.47;;;6.70;;
49450;SDS011;35336;48.400;10.886;2023-05-14T00:07:26;8.83;;;6.57;;
49450;SDS011;35336;48.400;10.886;2023-05-14T00:07:41;8.97;;;6.30;;
49450;SDS011;35336;48.400;10.886;2023-05-14T00:07:57;8.95;;;6.07;;
49450;SDS011;35336;48.400;10.886;2023-05-14T00:08:12;8.07;;;5.83;;
49450;SDS011;35336;48.400;10.886;2023-05-14T00:08:27;6.77;;;6.03;;
49450;SDS011;35336;48.400;10.886;2023-05-14T00:08:43;6.90;;;6.20;;
49450;SDS011;35336;48.400;10.886;2023-05-14T00:08:58;7.00;;;6.23;;
49450;SDS011;35336;48.400;10.886;2023-05-14T00:09:13;7.53;;;6.70;;
49450;SDS011;35336;48.400;10.886;2023-05-14T00:09:29;7.35;;;6.60;;
49450;SDS011;35336;48.400;10.886;2023-05-14T00:09:44;6.93;;;6.23;;
49450;SDS011;35336;48.400;10.886;2023-05-14T00:10:00;7.17;;;6.57;;
49450;SDS011;35336;48.400;10.886;2023-05-14T00:10:15;7.22;;;6.53;;
49450;SDS011;35336;48.400;10.886;2023-05-14T00:10:30;7.47;;;6.05;;
49450;SDS011;35336;48.400;10.886;2023-05-14T00:10:46;7.00;;;5.60;;
49450;SDS011;35336;48.400;10.886;2023-05-14T00:11:01;7.38;;;5.50;;
49450;SDS011;35336;48.400;10.886;2023-05-14T00:11:17;8.20;;;5.70;;
49450;SDS011;35336;48.400;10.886;2023-05-14T00:11:32;7.30;;;5.60;;
49450;SDS011;35336;48.400;10.886;2023-05-14T00:11:47;6.70;;;5.80;;
49450;SDS011;35336;48.400;10.886;2023-05-14T00:12:03;6.83;;;5.87;;
49450;SDS011;35336;48.400;10.886;2023-05-14T00:12:18;8.48;;;6.38;;
49450;SDS011;35336;48.400;10.886;2023-05-14T00:12:34;7.77;;;6.67;;
49450;SDS011;35336;48.400;10.886;2023-05-14T00:12:50;7.07;;;6.37;;
49450;SDS011;35336;48.400;10.886;2023-05-14T00:13:05;6.85;;;6.20;;
49450;SDS011;35336;48.400;10.886;2023-05-14T00:13:21;6.80;;;6.10;;
49450;SDS011;35336;48.400;10.886;2023-05-14T00:13:36;6.90;;;6.00;;
49450;SDS011;35336;48.400;10.886;2023-05-14T00:13:52;6.90;;;6.20;;
49450;SDS011;35336;48.400;10.886;2023-05-14T00:14:07;7.27;;;6.57;;
49450;SDS011;35336;48.400;10.886;2023-05-14T00:14:22;7.23;;;6.60;;
49450;SDS011;35336;48.400;10.886;2023-05-14T00:14:38;7.43;;;6.72;;
49450;SDS011;35336;48.400;10.886;2023-05-14T00:14:53;7.27;;;6.67;;
49450;SDS011;35336;48.400;10.886;2023-05-14T00:15:08;6.63;;;6.00;;
49450;SDS011;35336;48.400;10.886;2023-05-14T00:15:27;7.07;;;6.27;;
49450;SDS011;35336;48.400;10.886;2023-05-14T00:15:42;7.57;;;6.65;;
49450;SDS011;35336;48.400;10.886;2023-05-14T00:15:57;6.72;;;6.10;;
49450;SDS011;35336;48.400;10.886;2023-05-14T00:16:13;6.37;;;5.70;;
49450;SDS011;35336;48.400;10.886;2023-05-14T00:16:28;6.73;;;5.97;;
49450;SDS011;35336;48.400;10.886;2023-05-14T00:16:43;6.72;;;6.10;;
49450;SDS011;35336;48.400;10.886;2023-05-14T00:16:58;7.53;;;6.43;;
49450;SDS011;35336;48.400;10.886;2023-05-14T00:17:14;7.37;;;6.53;;
49450;SDS011;35336;48.400;10.886;2023-05-14T00:17:29;6.53;;;5.93;;
49450;SDS011;35336;48.400;10.886;2023-05-14T00:17:44;6.47;;;5.70;;
49450;SDS011;35336;48.400;10.886;2023-05-14T00:18:00;7.07;;;5.90;;
49450;SDS011;35336;48.400;10.886;2023-05-14T00:18:15;8.47;;;6.27;;
49450;SDS011;35336;48.400;10.886;2023-05-14T00:18:30;8.57;;;6.50;;
49450;SDS011;35336;48.400;10.886;2023-05-14T00:18:46;8.27;;;6.53;;
49450;SDS011;35336;48.400;10.886;2023-05-14T00:19:01;9.20;;;6.85;;
49450;SDS011;35336;48.400;10.886;2023-05-14T00:19:16;8.60;;;6.60;;
49450;SDS011;35336;48.400;10.886;2023-05-14T00:19:32;8.50;;;6.17;;
49450;SDS011;35336;48.400;10.886;2023-05-14T00:19:47;8.20;;;6.10;;
49450;SDS011;35336;48.400;10.886;2023-05-14T00:20:03;7.10;;;6.40;;
49450;SDS011;35336;48.400;10.886;2023-05-14T00:20:19;6.78;;;6.15;;
49450;SDS011;35336;48.400;10.886;2023-05-14T00:20:35;6.97;;;6.27;;
49450;SDS011;35336;48.400;10.886;2023-05-14T00:20:50;7.07;;;6.23;;
49450;SDS011;35336;48.400;10.886;2023-05-14T00:21:05;6.88;;;6.00;;
49450;SDS011;35336;48.400;10.886;2023-05-14T00:21:21;6.80;;;6.10;;
49450;SDS011;35336;48.400;10.886;2023-05-14T00:21:36;7.05;;;6.35;;
49450;SDS011;35336;48.400;10.886;2023-05-14T00:21:51;6.80;;;6.10;;
49450;SDS011;35336;48.400;10.886;2023-05-14T00:22:07;7.07;;;5.90;;
49450;SDS011;35336;48.400;10.886;2023-05-14T00:22:23;6.70;;;5.80;;
49450;SDS011;35336;48.400;10.886;2023-05-14T00:22:38;6.33;;;5.73;;
49450;SDS011;35336;48.400;10.886;2023-05-14T00:22:53;6.60;;;6.00;;
49450;SDS011;35336;48.400;10.886;2023-05-14T00:23:09;6.47;;;5.87;;
49450;SDS011;35336;48.400;10.886;2023-05-14T00:23:24;6.40;;;5.80;;
49450;SDS011;35336;48.400;10.886;2023-05-14T00:23:39;6.60;;;5.95;;
49450;SDS011;35336;48.400;10.886;2023-05-14T00:23:55;6.87;;;5.90;;
49450;SDS011;35336;48.400;10.886;2023-05-14T00:24:10;6.73;;;6.03;;
49450;SDS011;35336;48.400;10.886;2023-05-14T00:24:25;6.47;;;5.88;;
49450;SDS011;35336;48.400;10.886;2023-05-14T00:24:41;5.83;;;5.33;;
49450;SDS011;35336;48.400;10.886;2023-05-14T00:24:56;6.20;;;5.60;;
49450;SDS011;35336;48.400;10.886;2023-05-14T00:25:12;6.63;;;5.90;;
49450;SDS011;35336;48.400;10.886;2023-05-14T00:25:27;6.93;;;5.70;;
49450;SDS011;35336;48.400;10.886;2023-05-14T00:25:42;5.93;;;5.33;;
49450;SDS011;35336;48.400;10.886;2023-05-14T00:25:58;6.97;;;5.70;;
49450;SDS011;35336;48.400;10.886;2023-05-14T00:26:13;7.97;;;6.07;;
49450;SDS011;35336;48.400;10.886;2023-05-14T00:26:28;6.40;;;5.70;;
49450;SDS011;35336;48.400;10.886;2023-05-14T00:26:44;5.77;;;5.27;;
49450;SDS011;35336;48.400;10.886;2023-05-14T00:26:59;5.70;;;5.20;;
49450;SDS011;35336;48.400;10.886;2023-05-14T00:27:14;6.83;;;5.57;;
49450;SDS011;35336;48.400;10.886;2023-05-14T00:27:30;7.45;;;5.80;;
49450;SDS011;35336;48.400;10.886;2023-05-14T00:27:45;6.93;;;5.90;;
49450;SDS011;35336;48.400;10.886;2023-05-14T00:28:00;6.63;;;5.70;;
49450;SDS011;35336;48.400;10.886;2023-05-14T00:28:16;6.53;;;5.60;;
49450;SDS011;35336;48.400;10.886;2023-05-14T00:28:31;6.72;;;5.45;;
49450;SDS011;35336;48.400;10.886;2023-05-14T00:28:46;6.27;;;5.50;;
49450;SDS011;35336;48.400;10.886;2023-05-14T00:29:02;6.43;;;5.73;;
49450;SDS011;35336;48.400;10.886;2023-05-14T00:29:17;6.47;;;5.60;;
49450;SDS011;35336;48.400;10.886;2023-05-14T00:29:32;6.53;;;5.30;;
49450;SDS011;35336;48.400;10.886;2023-05-14T00:29:48;6.57;;;5.20;;
49450;SDS011;35336;48.400;10.886;2023-05-14T00:30:03;6.82;;;6.10;;
49450;SDS011;35336;48.400;10.886;2023-05-14T00:30:19;8.23;;;6.13;;
49450;SDS011;35336;48.400;10.886;2023-05-14T00:30:35;7.10;;;5.33;;
49450;SDS011;35336;48.400;10.886;2023-05-14T00:30:50;6.70;;;5.30;;
49450;SDS011;35336;48.400;10.886;2023-05-14T00:31:05;6.47;;;5.13;;
49450;SDS011;35336;48.400;10.886;2023-05-14T00:31:21;6.10;;;5.50;;
49450;SDS011;35336;48.400;10.886;2023-05-14T00:31:36;6.90;;;5.93;;
49450;SDS011;35336;48.400;10.886;2023-05-14T00:31:51;6.33;;;5.50;;
49450;SDS011;35336;48.400;10.886;2023-05-14T00:32:07;6.20;;;5.60;;
49450;SDS011;35336;48.400;10.886;2023-05-14T00:32:22;6.50;;;5.90;;
49450;SDS011;35336;48.400;10.886;2023-05-14T00:32:38;5.90;;;5.40;;
49450;SDS011;35336;48.400;10.886;2023-05-14T00:32:53;6.20;;;5.60;;
49450;SDS011;35336;48.400;10.886;2023-05-14T00:33:09;7.17;;;5.80;;
49450;SDS011;35336;48.400;10.886;2023-05-14T00:33:24;5.63;;;4.82;;
49450;SDS011;35336;48.400;10.886;2023-05-14T00:33:39;5.17;;;4.73;;
49450;SDS011;35336;48.400;10.886;2023-05-14T00:33:54;5.97;;;5.33;;
49450;SDS011;35336;48.400;10.886;2023-05-14T00:34:10;6.25;;;5.40;;
49450;SDS011;35336;48.400;10.886;2023-05-14T00:34:25;5.97;;;5.40;;
49450;SDS011;35336;48.400;10.886;2023-05-14T00:34:41;6.40;;;5.67;;
49450;SDS011;35336;48.400;10.886;2023-05-14T00:34:56;7.00;;;5.70;;
49450;SDS011;35336;48.400;10.886;2023-05-14T00:35:12;5.93;;;5.33;;
49450;SDS011;35336;48.400;10.886;2023-05-14T00:35:27;7.05;;;5.30;;
49450;SDS011;35336;48.400;10.886;2023-05-14T00:35:42;9.10;;;5.60;;
49450;SDS011;35336;48.400;10.886;2023-05-14T00:35:57;7.67;;;6.00;;
49450;SDS011;35336;48.400;10.886;2023-05-14T00:36:13;6.50;;;5.87;;
49450;SDS011;35336;48.400;10.886;2023-05-14T00:36:28;6.03;;;5.43;;
49450;SDS011;35336;48.400;10.886;2023-05-14T00:36:44;5.97;;;5.23;;
49450;SDS011;35336;48.400;10.886;2023-05-14T00:36:59;6.70;;;5.57;;
49450;SDS011;35336;48.400;10.886;2023-05-14T00:37:14;7.60;;;5.53;;
49450;SDS011;35336;48.400;10.886;2023-05-14T00:37:29;6.67;;;5.27;;
49450;SDS011;35336;48.400;10.886;2023-05-14T00:37:45;5.90;;;5.40;;
49450;SDS011;35336;48.400;10.886;2023-05-14T00:38:01;6.20;;;5.60;;
49450;SDS011;35336;48.400;10.886;2023-05-14T00:38:17;7.03;;;5.55;;
49450;SDS011;35336;48.400;10.886;2023-05-14T00:38:32;7.20;;;5.80;;
49450;SDS011;35336;48.400;10.886;2023-05-14T00:38:48;6.63;;;5.90;;
49450;SDS011;35336;48.400;10.886;2023-05-14T00:39:03;5.70;;;5.20;;
49450;SDS011;35336;48.400;10.886;2023-05-14T00:39:19;5.53;;;5.03;;
49450;SDS011;35336;48.400;10.886;2023-05-14T00:39:34;5.75;;;5.25;;
49450;SDS011;35336;48.400;10.886;2023-05-14T00:39:49;5.73;;;5.17;;
49450;SDS011;35336;48.400;10.886;2023-05-14T00:40:05;6.37;;;5.30;;
49450;SDS011;35336;48.400;10.886;2023-05-14T00:40:22;7.13;;;5.53;;
49450;SDS011;35336;48.400;10.886;2023-05-14T00:40:40;6.25;;;5.47;;
49450;SDS011;35336;48.400;10.886;2023-05-14T00:40:55;5.72;;;5.22;;
49450;SDS011;35336;48.400;10.886;2023-05-14T00:41:10;5.90;;;5.30;;
49450;SDS011;35336;48.400;10.886;2023-05-14T00:41:26;6.40;;;5.80;;
49450;SDS011;35336;48.400;10.886;2023-05-14T00:41:41;6.40;;;5.80;;
49450;SDS011;35336;48.400;10.886;2023-05-14T00:41:56;5.90;;;5.27;;
49450;SDS011;35336;48.400;10.886;2023-05-14T00:42:11;5.50;;;5.00;;
49450;SDS011;35336;48.400;10.886;2023-05-14T00:42:27;5.75;;;5.15;;
49450;SDS011;35336;48.400;10.886;2023-05-14T00:42:42;5.87;;;5.20;;
49450;SDS011;35336;48.400;10.886;2023-05-14T00:42:57;5.67;;;5.17;;
49450;SDS011;35336;48.400;10.886;2023-05-14T00:43:13;5.57;;;5.07;;
49450;SDS011;35336;48.400;10.886;2023-05-14T00:43:28;6.45;;;5.20;;
49450;SDS011;35336;48.400;10.886;2023-05-14T00:43:43;8.17;;;5.63;;
49450;SDS011;35336;48.400;10.886;2023-05-14T00:43:59;9.10;;;5.67;;
49450;SDS011;35336;48.400;10.886;2023-05-14T00:44:14;7.55;;;5.45;;
49450;SDS011;35336;48.400;10.886;2023-05-14T00:44:29;6.20;;;5.57;;
49450;SDS011;35336;48.400;10.886;2023-05-14T00:44:45;7.67;;;5.87;;
49450;SDS011;35336;48.400;10.886;2023-05-14T00:45:00;7.25;;;5.85;;
49450;SDS011;35336;48.400;10.886;2023-05-14T00:45:15;6.30;;;5.70;;
49450;SDS011;35336;48.400;10.886;2023-05-14T00:45:30;6.40;;;5.80;;
49450;SDS011;35336;48.400;10.886;2023-05-14T00:45:46;6.00;;;5.50;;
49450;SDS011;35336;48.400;10.886;2023-05-14T00:46:04;7.65;;;5.25;;
49450;SDS011;35336;48.400;10.886;2023-05-14T00:46:19;8.53;;;5.30;;
49450;SDS011;35336;48.400;10.886;2023-05-14T00:46:35;6.10;;;5.22;;
49450;SDS011;35336;48.400;10.886;2023-05-14T00:46:51;5.80;;;5.30;;
49450;SDS011;35336;48.400;10.886;2023-05-14T00:47:07;5.60;;;5.10;;
49450;SDS011;35336;48.400;10.886;2023-05-14T00:47:22;5.77;;;5.13;;
49450;SDS011;35336;48.400;10.886;2023-05-14T00:47:37;5.77;;;5.07;;
49450;SDS011;35336;48.400;10.886;2023-05-14T00:47:53;7.28;;;5.40;;
49450;SDS011;35336;48.400;10.886;2023-05-14T00:48:08;9.47;;;5.60;;
49450;SDS011;35336;48.400;10.886;2023-05-14T00:48:24;7.25;;;5.10;;
49450;SDS011;35336;48.400;10.886;2023-05-14T00:48:39;5.93;;;5.03;;
49450;SDS011;35336;48.400;10.886;2023-05-14T00:48:55;5.60;;;5.10;;
49450;SDS011;35336;48.400;10.886;2023-05-14T00:49:11;5.43;;;5.00;;
49450;SDS011;35336;48.400;10.886;2023-05-14T00:49:27;5.85;;;5.28;;
49450;SDS011;35336;48.400;10.886;2023-05-14T00:49:43;5.78;;;5.18;;
49450;SDS011;35336;48.400;10.886;2023-05-14T00:49:59;5.60;;;4.95;;
49450;SDS011;35336;48.400;10.886;2023-05-14T00:50:16;5.57;;;5.05;;
49450;SDS011;35336;48.400;10.886;2023-05-14T00:50:32;5.47;;;5.00;;
49450;SDS011;35336;48.400;10.886;2023-05-14T00:50:48;5.43;;;4.97;;
49450;SDS011;35336;48.400;10.886;2023-05-14T00:51:04;7.72;;;4.90;;
49450;SDS011;35336;48.400;10.886;2023-05-14T00:51:21;7.88;;;5.53;;
49450;SDS011;35336;48.400;10.886;2023-05-14T00:51:36;6.07;;;5.50;;
49450;SDS011;35336;48.400;10.886;2023-05-14T00:51:53;5.45;;;4.95;;
49450;SDS011;35336;48.400;10.886;2023-05-14T00:52:09;5.80;;;5.20;;
49450;SDS011;35336;48.400;10.886;2023-05-14T00:52:25;6.00;;;5.40;;
49450;SDS011;35336;48.400;10.886;2023-05-14T00:52:41;5.80;;;5.30;;
49450;SDS011;35336;48.400;10.886;2023-05-14T00:52:56;5.70;;;5.20;;
49450;SDS011;35336;48.400;10.886;2023-05-14T00:53:12;6.15;;;5.35;;
49450;SDS011;35336;48.400;10.886;2023-05-14T00:53:27;6.47;;;5.57;;
49450;SDS011;35336;48.400;10.886;2023-05-14T00:53:43;5.43;;;4.93;;
49450;SDS011;35336;48.400;10.886;2023-05-14T00:53:59;5.63;;;5.13;;
49450;SDS011;35336;48.400;10.886;2023-05-14T00:54:15;6.72;;;6.03;;
49450;SDS011;35336;48.400;10.886;2023-05-14T00:54:31;7.28;;;6.50;;
49450;SDS011;35336;48.400;10.886;2023-05-14T00:54:47;6.90;;;6.20;;
49450;SDS011;35336;48.400;10.886;2023-05-14T00:55:04;6.70;;;5.38;;
49450;SDS011;35336;48.400;10.886;2023-05-14T00:55:20;10.05;;;5.65;;
49450;SDS011;35336;48.400;10.886;2023-05-14T00:55:36;8.98;;;5.80;;
49450;SDS011;35336;48.400;10.886;2023-05-14T00:55:52;7.50;;;5.85;;
49450;SDS011;35336;48.400;10.886;2023-05-14T00:56:08;6.55;;;5.95;;
49450;SDS011;35336;48.400;10.886;2023-05-14T00:56:23;6.10;;;5.47;;
49450;SDS011;35336;48.400;10.886;2023-05-14T00:56:40;5.80;;;5.20;;
49450;SDS011;35336;48.400;10.886;2023-05-14T00:56:58;5.32;;;4.82;;
49450;SDS011;35336;48.400;10.886;2023-05-14T00:57:14;6.55;;;5.28;;
49450;SDS011;35336;48.400;10.886;2023-05-14T00:57:30;6.35;;;5.50;;
49450;SDS011;35336;48.400;10.886;2023-05-14T00:57:46;5.88;;;5.30;;
49450;SDS011;35336;48.400;10.886;2023-05-14T00:58:01;6.03;;;5.37;;
49450;SDS011;35336;48.400;10.886;2023-05-14T00:58:18;9.63;;;5.78;;
49450;SDS011;35336;48.400;10.886;2023-05-14T00:58:34;12.50;;;6.00;;
49450;SDS011;35336;48.400;10.886;2023-05-14T00:58:49;9.07;;;5.80;;
49450;SDS011;35336;48.400;10.886;2023-05-14T00:59:05;8.20;;;5.90;;
49450;SDS011;35336;48.400;10.886;2023-05-14T00:59:20;10.37;;;5.97;;
49450;SDS011;35336;48.400;10.886;2023-05-14T00:59:35;7.85;;;5.97;;
49450;SDS011;35336;48.400;10.886;2023-05-14T00:59:51;6.37;;;5.77;;
49450;SDS011;35336;48.400;10.886;2023-05-14T01:00:06;6.07;;;5.47;;
49450;SDS011;35336;48.400;10.886;2023-05-14T01:00:22;7.35;;;5.45;;
49450;SDS011;35336;48.400;10.886;2023-05-14T01:00:38;7.68;;;5.30;;
49450;SDS011;35336;48.400;10.886;2023-05-14T01:00:54;6.35;;;5.70;;
49450;SDS011;35336;48.400;10.886;2023-05-14T01:01:10;6.50;;;5.90;;
49450;SDS011;35336;48.400;10.886;2023-05-14T01:01:25;6.00;;;5.27;;
49450;SDS011;35336;48.400;10.886;2023-05-14T01:01:41;6.13;;;5.18;;
49450;SDS011;35336;48.400;10.886;2023-05-14T01:01:56;5.73;;;5.17;;
49450;SDS011;35336;48.400;10.886;2023-05-14T01:02:11;5.75;;;5.10;;
49450;SDS011;35336;48.400;10.886;2023-05-14T01:02:27;6.80;;;5.43;;
49450;SDS011;35336;48.400;10.886;2023-05-14T01:02:42;6.13;;;5.50;;
49450;SDS011;35336;48.400;10.886;2023-05-14T01:02:57;6.50;;;5.90;;
49450;SDS011;35336;48.400;10.886;2023-05-14T01:03:13;6.87;;;6.23;;
49450;SDS011;35336;48.400;10.886;2023-05-14T01:03:31;6.60;;;5.90;;
49450;SDS011;35336;48.400;10.886;2023-05-14T01:03:47;6.10;;;5.50;;
49450;SDS011;35336;48.400;10.886;2023-05-14T01:04:03;5.90;;;5.30;;
49450;SDS011;35336;48.400;10.886;2023-05-14T01:04:19;6.05;;;5.45;;
49450;SDS011;35336;48.400;10.886;2023-05-14T01:04:35;6.40;;;5.80;;
49450;SDS011;35336;48.400;10.886;2023-05-14T01:04:52;6.78;;;5.70;;
49450;SDS011;35336;48.400;10.886;2023-05-14T01:05:08;7.63;;;5.53;;
49450;SDS011;35336;48.400;10.886;2023-05-14T01:05:23;6.10;;;5.47;;
49450;SDS011;35336;48.400;10.886;2023-05-14T01:05:52;6.18;;;5.57;;
49450;SDS011;35336;48.400;10.886;2023-05-14T01:08:02;6.07;;;5.50;;
49450;SDS011;35336;48.400;10.886;2023-05-14T01:08:30;5.88;;;5.07;;
49450;SDS011;35336;48.400;10.886;2023-05-14T01:10:20;8.32;;;5.60;;
49450;SDS011;35336;48.400;10.886;2023-05-14T01:10:55;6.40;;;5.72;;
49450;SDS011;35336;48.400;10.886;2023-05-14T01:11:21;7.47;;;5.88;;
49450;SDS011;35336;48.400;10.886;2023-05-14T01:11:56;6.38;;;5.65;;
49450;SDS011;35336;48.400;10.886;2023-05-14T01:12:23;7.55;;;6.30;;
49450;SDS011;35336;48.400;10.886;2023-05-14T01:13:01;6.68;;;5.32;;
49450;SDS011;35336;48.400;10.886;2023-05-14T01:14:23;5.55;;;5.05;;
49450;SDS011;35336;48.400;10.886;2023-05-14T01:14:44;6.65;;;5.35;;
49450;SDS011;35336;48.400;10.886;2023-05-14T01:15:09;6.00;;;5.40;;
49450;SDS011;35336;48.400;10.886;2023-05-14T01:15:29;6.25;;;5.30;;
49450;SDS011;35336;48.400;10.886;2023-05-14T01:15:46;6.20;;;5.35;;
49450;SDS011;35336;48.400;10.886;2023-05-14T01:16:01;5.93;;;5.43;;
49450;SDS011;35336;48.400;10.886;2023-05-14T01:16:18;5.57;;;5.15;;
49450;SDS011;35336;48.400;10.886;2023-05-14T01:16:33;5.78;;;5.18;;
49450;SDS011;35336;48.400;10.886;2023-05-14T01:16:51;7.07;;;5.55;;
49450;SDS011;35336;48.400;10.886;2023-05-14T01:17:10;7.78;;;5.60;;
49450;SDS011;35336;48.400;10.886;2023-05-14T01:17:28;6.05;;;5.43;;
49450;SDS011;35336;48.400;10.886;2023-05-14T01:17:56;6.25;;;5.65;;
49450;SDS011;35336;48.400;10.886;2023-05-14T01:18:15;6.30;;;5.78;;
49450;SDS011;35336;48.400;10.886;2023-05-14T01:18:32;6.10;;;5.60;;
49450;SDS011;35336;48.400;10.886;2023-05-14T01:18:48;6.30;;;5.70;;
49450;SDS011;35336;48.400;10.886;2023-05-14T01:19:06;6.25;;;5.65;;
49450;SDS011;35336;48.400;10.886;2023-05-14T01:19:41;6.40;;;5.40;;
49450;SDS011;35336;48.400;10.886;2023-05-14T01:19:58;5.88;;;5.28;;
49450;SDS011;35336;48.400;10.886;2023-05-14T01:20:13;5.78;;;5.18;;
49450;SDS011;35336;48.400;10.886;2023-05-14T01:20:29;7.53;;;5.43;;
49450;SDS011;35336;48.400;10.886;2023-05-14T01:20:44;7.05;;;5.15;;
49450;SDS011;35336;48.400;10.886;2023-05-14T01:21:00;5.63;;;4.73;;
49450;SDS011;35336;48.400;10.886;2023-05-14T01:22:00;5.40;;;4.90;;
49450;SDS011;35336;48.400;10.886;2023-05-14T01:22:16;5.90;;;5.03;;
49450;SDS011;35336;48.400;10.886;2023-05-14T01:22:31;5.70;;;5.00;;
49450;SDS011;35336;48.400;10.886;2023-05-14T01:22:46;5.68;;;5.13;;
49450;SDS011;35336;48.400;10.886;2023-05-14T01:23:02;6.17;;;5.57;;
49450;SDS011;35336;48.400;10.886;2023-05-14T01:23:18;6.32;;;5.78;;
49450;SDS011;35336;48.400;10.886;2023-05-14T01:23:33;6.63;;;5.90;;
49450;SDS011;35336;48.400;10.886;2023-05-14T01:23:48;6.63;;;5.38;;
49450;SDS011;35336;48.400;10.886;2023-05-14T01:24:03;7.30;;;5.20;;
49450;SDS011;35336;48.400;10.886;2023-05-14T01:24:19;6.85;;;5.20;;
49450;SDS011;35336;48.400;10.886;2023-05-14T01:24:34;5.33;;;4.83;;
49450;SDS011;35336;48.400;10.886;2023-05-14T01:24:50;5.80;;;5.20;;
49450;SDS011;35336;48.400;10.886;2023-05-14T01:25:05;7.28;;;5.60;;
49450;SDS011;35336;48.400;10.886;2023-05-14T01:25:21;8.63;;;5.60;;
49450;SDS011;35336;48.400;10.886;2023-05-14T01:25:36;9.10;;;5.67;;
49450;SDS011;35336;48.400;10.886;2023-05-14T01:25:52;7.70;;;5.27;;
49450;SDS011;35336;48.400;10.886;2023-05-14T01:26:07;7.07;;;5.25;;
49450;SDS011;35336;48.400;10.886;2023-05-14T01:26:22;9.77;;;5.73;;
49450;SDS011;35336;48.400;10.886;2023-05-14T01:26:38;7.50;;;5.60;;
49450;SDS011;35336;48.400;10.886;2023-05-14T01:26:54;5.88;;;5.28;;
49450;SDS011;35336;48.400;10.886;2023-05-14T01:27:19;6.22;;;5.63;;
49450;SDS011;35336;48.400;10.886;2023-05-14T01:28:27;7.35;;;5.63;;
49450;SDS011;35336;48.400;10.886;2023-05-14T01:28:46;6.75;;;5.65;;
49450;SDS011;35336;48.400;10.886;2023-05-14T01:29:23;5.63;;;5.13;;
49450;SDS011;35336;48.400;10.886;2023-05-14T01:29:47;5.72;;;5.22;;
49450;SDS011;35336;48.400;10.886;2023-05-14T01:30:23;6.10;;;5.50;;
49450;SDS011;35336;48.400;10.886;2023-05-14T01:30:48;6.07;;;5.53;;
49450;SDS011;35336;48.400;10.886;2023-05-14T01:31:13;6.53;;;5.50;;
49450;SDS011;35336;48.400;10.886;2023-05-14T01:31:35;6.80;;;5.50;;
49450;SDS011;35336;48.400;10.886;2023-05-14T01:31:54;6.15;;;5.55;;
49450;SDS011;35336;48.400;10.886;2023-05-14T01:32:11;7.45;;;5.65;;
49450;SDS011;35336;48.400;10.886;2023-05-14T01:32:27;7.70;;;5.45;;
49450;SDS011;35336;48.400;10.886;2023-05-14T01:32:46;6.82;;;5.78;;
49450;SDS011;35336;48.400;10.886;2023-05-14T01:33:05;6.30;;;5.70;;
49450;SDS011;35336;48.400;10.886;2023-05-14T01:33:25;5.95;;;5.38;;
49450;SDS011;35336;48.400;10.886;2023-05-14T01:33:43;7.20;;;5.55;;
49450;SDS011;35336;48.400;10.886;2023-05-14T01:34:01;5.90;;;5.30;;
49450;SDS011;35336;48.400;10.886;2023-05-14T01:34:20;6.20;;;5.22;;
49450;SDS011;35336;48.400;10.886;2023-05-14T01:34:38;6.43;;;5.78;;
49450;SDS011;35336;48.400;10.886;2023-05-14T01:34:54;6.93;;;6.22;;
49450;SDS011;35336;48.400;10.886;2023-05-14T01:35:12;6.13;;;5.53;;
49450;SDS011;35336;48.400;10.886;2023-05-14T01:35:29;6.20;;;5.60;;
49450;SDS011;35336;48.400;10.886;2023-05-14T01:35:44;6.10;;;5.55;;
49450;SDS011;35336;48.400;10.886;2023-05-14T01:36:00;5.95;;;5.45;;
49450;SDS011;35336;48.400;10.886;2023-05-14T01:36:16;6.38;;;5.78;;
49450;SDS011;35336;48.400;10.886;2023-05-14T01:36:32;6.45;;;5.63;;
49450;SDS011;35336;48.400;10.886;2023-05-14T01:36:49;5.47;;;4.82;;
49450;SDS011;35336;48.400;10.886;2023-05-14T01:37:05;4.88;;;4.47;;
49450;SDS011;35336;48.400;10.886;2023-05-14T01:37:24;5.50;;;4.93;;
49450;SDS011;35336;48.400;10.886;2023-05-14T01:37:42;5.95;;;5.40;;
49450;SDS011;35336;48.400;10.886;2023-05-14T01:38:00;6.38;;;4.97;;
49450;SDS011;35336;48.400;10.886;2023-05-14T01:38:18;7.47;;;5.60;;
49450;SDS011;35336;48.400;10.886;2023-05-14T01:38:35;6.25;;;5.65;;
49450;SDS011;35336;48.400;10.886;2023-05-14T01:38:51;7.57;;;5.50;;
49450;SDS011;35336;48.400;10.886;2023-05-14T01:39:09;7.45;;;5.40;;
49450;SDS011;35336;48.400;10.886;2023-05-14T01:39:25;6.18;;;5.15;;
49450;SDS011;35336;48.400;10.886;2023-05-14T01:39:41;5.82;;;5.22;;
49450;SDS011;35336;48.400;10.886;2023-05-14T01:39:57;6.10;;;5.50;;
49450;SDS011;35336;48.400;10.886;2023-05-14T01:40:14;6.15;;;5.65;;
49450;SDS011;35336;48.400;10.886;2023-05-14T01:40:29;6.03;;;5.50;;
49450;SDS011;35336;48.400;10.886;2023-05-14T01:40:46;5.75;;;5.15;;
49450;SDS011;35336;48.400;10.886;2023-05-14T01:41:04;6.50;;;5.32;;
49450;SDS011;35336;48.400;10.886;2023-05-14T01:41:20;7.05;;;5.78;;
49450;SDS011;35336;48.400;10.886;2023-05-14T01:41:37;6.45;;;5.70;;
49450;SDS011;35336;48.400;10.886;2023-05-14T01:41:53;6.37;;;5.40;;
49450;SDS011;35336;48.400;10.886;2023-05-14T01:42:09;5.95;;;5.00;;
49450;SDS011;35336;48.400;10.886;2023-05-14T01:42:25;5.83;;;5.07;;
49450;SDS011;35336;48.400;10.886;2023-05-14T01:42:40;5.88;;;5.28;;
49450;SDS011;35336;48.400;10.886;2023-05-14T01:42:57;6.10;;;5.50;;
49450;SDS011;35336;48.400;10.886;2023-05-14T01:43:14;7.55;;;5.78;;
49450;SDS011;35336;48.400;10.886;2023-05-14T01:43:30;10.52;;;6.30;;
49450;SDS011;35336;48.400;10.886;2023-05-14T01:43:45;9.13;;;6.73;;
49450;SDS011;35336;48.400;10.886;2023-05-14T01:44:01;7.60;;;6.40;;